createdAt,value
2022-12-14T00:01:16.255Z,97424.19
2022-12-14T00:03:42.818Z,97430.69
2022-12-14T00:06:29.125Z,97425.13
2022-12-14T00:08:59.807Z,97416.34
2022-12-14T00:11:26.337Z,97419.28
2022-12-14T00:13:57.187Z,97404.66
2022-12-14T00:16:24.086Z,97402.84
2022-12-14T00:18:52.444Z,97405.00
2022-12-14T00:21:19.005Z,97398.66
2022-12-14T00:23:46.169Z,97398.13
2022-12-14T00:26:27.269Z,97406.72
2022-12-14T00:28:54.829Z,97395.03
2022-12-14T00:31:21.855Z,97394.00
2022-12-14T00:33:48.571Z,97396.44
2022-12-14T00:36:15.062Z,97395.41
2022-12-14T00:38:41.549Z,97388.78
2022-12-14T00:41:08.101Z,97378.97
2022-12-14T00:43:34.860Z,97376.59
2022-12-14T00:46:01.373Z,97377.44
2022-12-14T00:48:28.125Z,97373.97
2022-12-14T00:50:55.177Z,97364.72
2022-12-14T00:53:21.814Z,97364.75
2022-12-14T00:55:49.677Z,97363.75
2022-12-14T00:58:17.660Z,97358.97
2022-12-14T01:00:47.243Z,97361.94
2022-12-14T01:03:13.864Z,97364.06
2022-12-14T01:05:40.609Z,97360.91
2022-12-14T01:08:07.117Z,97362.53
2022-12-14T01:10:33.678Z,97362.53
2022-12-14T01:13:00.141Z,97356.47
2022-12-14T01:15:26.595Z,97365.53
2022-12-14T01:17:53.069Z,97357.31
2022-12-14T01:20:19.619Z,97356.81
2022-12-14T01:22:46.146Z,97350.97
2022-12-14T01:25:12.729Z,97348.34
2022-12-14T01:27:39.175Z,97341.72
2022-12-14T01:30:05.990Z,97344.16
2022-12-14T01:32:32.462Z,97340.47
2022-12-14T01:34:58.942Z,97336.47
2022-12-14T01:37:25.415Z,97331.72
2022-12-14T01:39:51.883Z,97331.50
2022-12-14T01:42:18.340Z,97331.50
2022-12-14T01:44:44.678Z,97331.50
2022-12-14T01:47:50.223Z,97329.63
2022-12-14T01:50:26.717Z,97323.50
2022-12-14T01:52:54.968Z,97333.06
2022-12-14T01:55:27.529Z,97326.16
2022-12-14T01:57:59.226Z,97321.69
2022-12-14T02:00:26.094Z,97320.91
2022-12-14T02:03:10.447Z,97322.53
2022-12-14T02:05:37.506Z,97320.66
2022-12-14T02:08:03.973Z,97315.88
2022-12-14T02:10:30.466Z,97311.94
2022-12-14T02:13:10.151Z,97306.09
2022-12-14T02:15:37.181Z,97306.66
2022-12-14T02:18:03.667Z,97304.25
2022-12-14T02:20:35.773Z,97303.75
2022-12-14T02:23:17.682Z,97299.00
2022-12-14T02:25:59.297Z,97299.56
2022-12-14T02:28:44.480Z,97283.09
2022-12-14T02:31:33.281Z,97285.00
2022-12-14T02:34:11.236Z,97281.84
2022-12-14T02:36:42.213Z,97281.59
2022-12-14T02:39:34.580Z,97282.16
2022-12-14T02:42:14.710Z,97286.97
2022-12-14T02:44:55.239Z,97278.19
2022-12-14T02:47:28.043Z,97284.34
2022-12-14T02:50:14.646Z,97266.53
2022-12-14T02:53:38.675Z,97269.19
2022-12-14T02:56:07.523Z,97268.41
2022-12-14T02:58:41.426Z,97264.94
2022-12-14T03:01:12.725Z,97252.44
2022-12-14T03:03:39.449Z,97245.53
2022-12-14T03:06:25.860Z,97244.97
2022-12-14T03:09:03.536Z,97249.50
2022-12-14T03:11:50.060Z,97248.44
2022-12-14T03:14:23.432Z,97244.44
2022-12-14T03:16:50.444Z,97239.91
2022-12-14T03:19:22.924Z,97245.22
2022-12-14T03:21:58.502Z,97245.72
2022-12-14T03:24:37.461Z,97237.25
2022-12-14T03:27:11.657Z,97235.09
2022-12-14T03:29:40.526Z,97233.81
2022-12-14T03:32:18.942Z,97231.41
2022-12-14T03:34:51.508Z,97219.50
2022-12-14T03:37:22.349Z,97220.81
2022-12-14T03:39:48.809Z,97221.91
2022-12-14T03:42:22.782Z,97218.22
2022-12-14T03:44:57.142Z,97214.53
2022-12-14T03:47:48.503Z,97212.44
2022-12-14T03:50:21.353Z,97209.25
2022-12-14T03:52:59.055Z,97203.94
2022-12-14T03:55:53.502Z,97196.75
2022-12-14T03:58:36.613Z,97203.16
2022-12-14T04:01:17.487Z,97193.59
2022-12-14T04:03:52.735Z,97196.56
2022-12-14T04:06:27.529Z,97192.56
2022-12-14T04:09:03.162Z,97181.69
2022-12-14T04:11:52.271Z,97176.34
2022-12-14T04:14:41.056Z,97176.34
2022-12-14T04:17:28.629Z,97180.09
2022-12-14T04:19:59.719Z,97180.09
2022-12-14T04:22:26.706Z,97173.19
2022-12-14T04:25:23.045Z,97176.94
2022-12-14T04:28:01.982Z,97170.03
2022-12-14T04:30:28.661Z,97165.78
2022-12-14T04:33:40.190Z,97165.00
2022-12-14T04:36:07.216Z,97159.22
2022-12-14T04:38:34.893Z,97163.97
2022-12-14T04:41:04.078Z,97165.81
2022-12-14T04:43:31.937Z,97166.13
2022-12-14T04:46:02.054Z,97156.81
2022-12-14T04:48:45.950Z,97151.00
2022-12-14T04:51:13.647Z,97144.91
2022-12-14T04:53:40.146Z,97146.00
2022-12-14T04:56:10.435Z,97149.44
2022-12-14T04:58:36.890Z,97144.38
2022-12-14T05:01:30.861Z,97136.69
2022-12-14T05:04:19.070Z,97137.00
2022-12-14T05:07:11.110Z,97130.88
2022-12-14T05:09:51.136Z,97130.09
2022-12-14T05:12:29.585Z,97129.56
2022-12-14T05:15:07.774Z,97125.06
2022-12-14T05:17:36.309Z,97120.81
2022-12-14T05:20:02.806Z,97113.94
2022-12-14T05:22:29.249Z,97119.25
2022-12-14T05:24:55.743Z,97116.59
2022-12-14T05:27:22.671Z,97113.94
2022-12-14T05:29:49.151Z,97107.03
2022-12-14T05:32:15.597Z,97100.91
2022-12-14T05:34:42.134Z,97104.94
2022-12-14T05:37:14.586Z,97104.94
2022-12-14T05:39:44.366Z,97100.97
2022-12-14T05:42:10.819Z,97090.91
2022-12-14T05:44:37.312Z,97092.25
2022-12-14T05:47:03.798Z,97087.22
2022-12-14T05:49:30.338Z,97085.91
2022-12-14T05:51:56.785Z,97084.34
2022-12-14T05:54:23.247Z,97081.44
2022-12-14T05:56:49.717Z,97085.94
2022-12-14T05:59:16.837Z,97073.75
2022-12-14T06:01:43.681Z,97073.47
2022-12-14T06:04:11.835Z,97059.69
2022-12-14T06:06:38.312Z,97056.25
2022-12-14T06:09:08.942Z,97049.38
2022-12-14T06:11:39.430Z,97046.72
2022-12-14T06:14:06.243Z,97041.41
2022-12-14T06:16:32.708Z,97044.84
2022-12-14T06:18:59.929Z,97049.63
2022-12-14T06:21:34.234Z,97046.72
2022-12-14T06:24:00.679Z,97048.06
2022-12-14T06:26:27.452Z,97046.97
2022-12-14T06:28:54.694Z,97040.59
2022-12-14T06:31:29.328Z,97036.09
2022-12-14T06:33:59.109Z,97032.63
2022-12-14T06:36:27.079Z,97025.75
2022-12-14T06:38:57.392Z,97028.69
2022-12-14T06:41:24.208Z,97026.81
2022-12-14T06:43:51.148Z,97018.84
2022-12-14T06:46:19.398Z,97024.72
2022-12-14T06:48:53.061Z,97026.06
2022-12-14T06:51:20.094Z,97024.50
2022-12-14T06:53:46.672Z,97027.69
2022-12-14T06:56:14.850Z,97019.22
2022-12-14T06:58:41.387Z,97018.72
2022-12-14T07:01:19.162Z,97025.09
2022-12-14T07:03:55.705Z,97015.81
2022-12-14T07:06:22.810Z,97014.22
2022-12-14T07:08:49.375Z,97012.06
2022-12-14T07:11:16.093Z,97008.25
2022-12-14T07:13:42.676Z,97008.94
2022-12-14T07:16:13.956Z,97009.53
2022-12-14T07:18:40.445Z,97005.63
2022-12-14T07:21:11.624Z,97003.50
2022-12-14T07:23:38.591Z,97006.31
2022-12-14T07:26:06.193Z,97005.38
2022-12-14T07:28:32.727Z,96995.97
2022-12-14T07:30:59.451Z,96997.56
2022-12-14T07:33:26.448Z,96997.28
2022-12-14T07:36:00.725Z,96993.84
2022-12-14T07:38:27.032Z,96999.34
2022-12-14T07:40:53.980Z,97002.75
2022-12-14T07:43:20.454Z,97001.84
2022-12-14T07:45:47.093Z,97000.91
2022-12-14T07:48:13.549Z,96999.97
2022-12-14T07:50:40.028Z,96997.94
2022-12-14T07:53:07.013Z,96984.72
2022-12-14T07:55:35.111Z,96990.72
2022-12-14T07:58:02.176Z,96993.44
2022-12-14T08:00:28.637Z,96995.88
2022-12-14T08:02:55.356Z,96990.97
2022-12-14T08:05:21.812Z,96996.31
2022-12-14T08:07:48.251Z,96990.78
2022-12-14T08:10:14.727Z,96983.38
2022-12-14T08:12:41.167Z,96976.63
2022-12-14T08:15:08.434Z,96977.28
2022-12-14T08:17:34.891Z,96984.34
2022-12-14T08:20:01.349Z,96978.16
2022-12-14T08:22:27.844Z,96983.22
2022-12-14T08:24:54.293Z,96980.56
2022-12-14T08:27:21.798Z,96979.09
2022-12-14T08:29:48.274Z,96970.66
2022-12-14T08:32:14.724Z,96981.59
2022-12-14T08:34:41.210Z,96986.38
2022-12-14T08:37:07.663Z,96988.72
2022-12-14T08:39:34.138Z,96986.81
2022-12-14T08:42:00.636Z,96988.16
2022-12-14T08:44:27.130Z,96993.47
2022-12-14T08:46:53.639Z,96988.72
2022-12-14T08:49:20.450Z,96998.00
2022-12-14T08:51:46.990Z,96995.06
2022-12-14T08:54:13.489Z,96993.47
2022-12-14T08:56:40.154Z,96980.03
2022-12-14T08:59:06.609Z,96995.72
2022-12-14T09:01:34.767Z,96988.59
2022-12-14T09:04:03.053Z,96995.56
2022-12-14T09:06:29.520Z,96987.66
2022-12-14T09:08:55.984Z,96996.97
2022-12-14T09:11:22.624Z,96994.38
2022-12-14T09:13:49.145Z,96991.78
2022-12-14T09:16:17.686Z,97002.56
2022-12-14T09:18:44.862Z,96997.69
2022-12-14T09:21:11.343Z,96996.28
2022-12-14T09:23:39.850Z,97002.88
2022-12-14T09:26:15.425Z,96995.91
2022-12-14T09:28:42.741Z,97002.53
2022-12-14T09:31:13.608Z,97001.38
2022-12-14T09:33:40.618Z,96993.94
2022-12-14T09:36:08.673Z,96999.97
2022-12-14T09:38:36.127Z,96994.19
2022-12-14T09:41:07.822Z,96999.31
2022-12-14T09:43:39.216Z,96998.78
2022-12-14T09:46:24.319Z,96992.19
2022-12-14T09:48:52.012Z,96981.84
2022-12-14T09:51:20.097Z,96988.88
2022-12-14T09:53:47.830Z,96982.22
2022-12-14T09:56:17.313Z,96982.22
2022-12-14T09:58:55.888Z,96987.53
2022-12-14T10:01:22.473Z,96986.22
2022-12-14T10:03:55.261Z,96985.75
2022-12-14T10:06:35.371Z,96974.38
2022-12-14T10:09:33.301Z,96981.03
2022-12-14T10:12:34.348Z,96984.56
2022-12-14T10:15:07.514Z,96977.44
2022-12-14T10:17:44.667Z,96979.09
2022-12-14T10:20:24.922Z,96970.56
2022-12-14T10:22:52.627Z,96972.59
2022-12-14T10:25:27.388Z,96967.63
2022-12-14T10:28:15.758Z,96967.34
2022-12-14T10:30:42.884Z,96969.16
2022-12-14T10:33:22.215Z,96972.31
2022-12-14T10:35:52.828Z,96969.34
2022-12-14T10:38:26.499Z,96968.22
2022-12-14T10:41:07.298Z,96971.06
2022-12-14T10:43:49.874Z,96966.34
2022-12-14T10:46:35.887Z,96971.81
2022-12-14T10:49:08.998Z,96963.03
2022-12-14T10:51:43.998Z,96964.69
2022-12-14T10:54:22.566Z,96954.78
2022-12-14T10:56:50.009Z,96956.91
2022-12-14T10:59:39.852Z,96951.78
2022-12-14T11:02:19.093Z,96954.09
2022-12-14T11:04:56.058Z,96951.97
2022-12-14T11:07:24.756Z,96945.09
2022-12-14T11:09:51.314Z,96957.94
2022-12-14T11:12:19.491Z,96951.06
2022-12-14T11:15:03.049Z,96942.56
2022-12-14T11:17:30.591Z,96937.31
2022-12-14T11:20:14.957Z,96931.31
2022-12-14T11:22:52.672Z,96940.28
2022-12-14T11:25:31.258Z,96934.06
2022-12-14T11:28:03.855Z,96928.63
2022-12-14T11:30:30.479Z,96930.06
2022-12-14T11:32:56.965Z,96935.59
2022-12-14T11:35:23.422Z,96929.66
2022-12-14T11:37:50.052Z,96927.81
2022-12-14T11:40:36.040Z,96929.97
2022-12-14T11:43:03.773Z,96924.31
2022-12-14T11:45:32.247Z,96914.88
2022-12-14T11:48:14.258Z,96913.09
2022-12-14T11:50:44.550Z,96916.63
2022-12-14T11:53:12.681Z,96903.00
2022-12-14T11:55:41.028Z,96907.38
2022-12-14T11:58:17.185Z,96905.19
2022-12-14T12:00:47.386Z,96898.88
2022-12-14T12:03:27.997Z,96905.19
2022-12-14T12:05:54.535Z,96902.31
2022-12-14T12:08:25.601Z,96897.25
2022-12-14T12:11:03.116Z,96899.28
2022-12-14T12:13:37.001Z,96899.47
2022-12-14T12:16:14.804Z,96904.47
2022-12-14T12:18:46.620Z,96888.28
2022-12-14T12:21:22.454Z,96892.44
2022-12-14T12:23:56.127Z,96891.16
2022-12-14T12:26:25.560Z,96894.03
2022-12-14T12:29:01.334Z,96890.16
2022-12-14T12:31:38.492Z,96892.50
2022-12-14T12:34:11.905Z,96894.94
2022-12-14T12:36:39.614Z,96891.06
2022-12-14T12:39:17.032Z,96891.97
2022-12-14T12:42:06.727Z,96882.22
2022-12-14T12:44:56.333Z,96883.41
2022-12-14T12:47:46.647Z,96879.28
2022-12-14T12:50:17.296Z,96884.53
2022-12-14T12:53:05.172Z,96883.66
2022-12-14T12:55:36.802Z,96887.75
2022-12-14T12:58:03.387Z,96884.88
2022-12-14T13:00:30.484Z,96883.31
2022-12-14T13:03:09.543Z,96888.13
2022-12-14T13:05:51.375Z,96886.38
2022-12-14T13:08:25.276Z,96881.78
2022-12-14T13:13:38.434Z,96882.34
2022-12-14T13:16:15.571Z,96883.44
2022-12-14T13:19:13.220Z,96878.13
2022-12-14T13:21:35.640Z,96877.63
2022-12-14T13:24:02.662Z,96874.94
2022-12-14T13:26:59.137Z,96883.84
2022-12-14T13:29:47.400Z,96886.59
2022-12-14T13:32:47.423Z,96880.81
2022-12-14T13:35:36.625Z,96878.34
2022-12-14T13:38:33.190Z,96870.47
2022-12-14T13:41:22.126Z,96867.16
2022-12-14T13:44:10.756Z,96872.16
2022-12-14T13:46:37.336Z,96878.31
2022-12-14T13:49:07.065Z,96875.44
2022-12-14T13:51:38.052Z,96876.81
2022-12-14T13:54:06.793Z,96874.94
2022-12-14T13:56:35.158Z,96877.63
2022-12-14T13:59:03.638Z,96878.41
2022-12-14T14:01:48.291Z,96876.63
2022-12-14T14:04:18.408Z,96877.72
2022-12-14T14:06:48.697Z,96878.34
2022-12-14T14:09:33.441Z,96875.69
2022-12-14T14:12:21.721Z,96868.56
2022-12-14T14:14:52.085Z,96869.63
2022-12-14T14:17:25.494Z,96879.81
2022-12-14T14:19:56.027Z,96872.63
2022-12-14T14:22:25.714Z,96869.94
2022-12-14T14:25:12.873Z,96866.03
2022-12-14T14:27:50.254Z,96870.53
2022-12-14T14:30:52.234Z,96872.91
2022-12-14T14:33:47.117Z,96876.66
2022-12-14T14:36:35.895Z,96870.63
2022-12-14T14:39:24.540Z,96872.31
2022-12-14T14:41:53.441Z,96873.13
2022-12-14T14:44:21.590Z,96874.47
2022-12-14T14:46:48.504Z,96881.78
2022-12-14T14:49:36.145Z,96878.44
2022-12-14T14:52:39.789Z,96870.34
2022-12-14T14:55:53.147Z,96879.88
2022-12-14T14:58:25.974Z,96877.84
2022-12-14T15:01:17.737Z,96884.22
2022-12-14T15:04:00.671Z,96878.63
2022-12-14T15:06:31.355Z,96882.25
2022-12-14T15:09:09.618Z,96879.41
2022-12-14T15:11:46.332Z,96877.63
2022-12-14T15:14:15.128Z,96877.72
2022-12-14T15:16:43.764Z,96880.16
2022-12-14T15:19:33.476Z,96878.88
2022-12-14T15:22:02.697Z,96884.00
2022-12-14T15:24:29.157Z,96881.91
2022-12-14T15:26:55.671Z,96879.56
2022-12-14T15:29:27.753Z,96879.06
2022-12-14T15:31:59.659Z,96884.09
2022-12-14T15:34:26.633Z,96884.97
2022-12-14T15:36:53.142Z,96897.97
2022-12-14T15:39:33.585Z,96902.28
2022-12-14T15:42:02.763Z,96896.50
2022-12-14T15:44:29.286Z,96903.47
2022-12-14T15:46:55.816Z,96904.00
2022-12-14T15:49:22.962Z,96907.13
2022-12-14T15:51:49.424Z,96905.56
2022-12-14T15:54:18.683Z,96904.47
2022-12-14T15:56:46.326Z,96905.09
2022-12-14T15:59:17.799Z,96908.16
2022-12-14T16:01:53.663Z,96923.19
2022-12-14T16:04:22.819Z,96917.88
2022-12-14T16:06:56.960Z,96924.38
2022-12-14T16:09:28.563Z,96916.19
2022-12-14T16:11:56.371Z,96918.47
2022-12-14T16:14:29.156Z,96917.28
2022-12-14T16:16:55.952Z,96915.03
2022-12-14T16:19:28.776Z,96918.78
2022-12-14T16:22:10.093Z,96928.47
2022-12-14T16:24:37.831Z,96926.19
2022-12-14T16:27:04.955Z,96921.66
2022-12-14T16:29:32.628Z,96920.56
2022-12-14T16:32:03.366Z,96923.22
2022-12-14T16:34:29.946Z,96924.00
2022-12-14T16:39:50.269Z,96936.75
2022-12-14T16:42:24.859Z,96937.84
2022-12-14T16:44:53.928Z,96933.00
2022-12-14T16:47:35.575Z,96933.19
2022-12-14T16:50:02.089Z,96937.66
2022-12-14T16:52:33.212Z,96933.88
2022-12-14T16:55:08.683Z,96934.09
2022-12-14T16:57:35.615Z,96939.63
2022-12-14T17:00:04.046Z,96937.13
2022-12-14T17:02:33.343Z,96941.38
2022-12-14T17:05:03.294Z,96942.19
2022-12-14T17:07:30.555Z,96938.41
2022-12-14T17:09:57.107Z,96944.22
2022-12-14T17:12:24.502Z,96941.28
2022-12-14T17:14:51.167Z,96950.94
2022-12-14T17:17:37.857Z,96948.28
2022-12-14T17:20:08.001Z,96945.91
2022-12-14T17:22:37.046Z,96954.97
2022-12-14T17:25:03.608Z,96958.75
2022-12-14T17:27:30.425Z,96960.31
2022-12-14T17:29:57.403Z,96955.50
2022-12-14T17:32:25.853Z,96961.09
2022-12-14T17:34:52.326Z,96974.44
2022-12-14T17:37:20.736Z,96976.00
2022-12-14T17:39:47.479Z,96973.34
2022-12-14T17:42:15.548Z,96976.50
2022-12-14T17:44:42.807Z,96977.28
2022-12-14T17:47:15.653Z,96973.84
2022-12-14T17:49:42.971Z,96978.38
2022-12-14T17:52:17.938Z,96975.22
2022-12-14T17:54:44.451Z,96972.28
2022-12-14T17:57:18.327Z,96978.97
2022-12-14T17:59:47.637Z,96973.94
2022-12-14T18:02:34.825Z,96983.63
2022-12-14T18:05:01.443Z,96987.97
2022-12-14T18:07:27.938Z,96988.16
2022-12-14T18:09:54.491Z,96996.16
2022-12-14T18:12:23.542Z,96992.69
2022-12-14T18:14:50.747Z,96991.13
2022-12-14T18:17:18.665Z,96992.50
2022-12-14T18:19:45.189Z,96988.84
2022-12-14T18:22:14.605Z,96989.94
2022-12-14T18:24:41.187Z,96994.75
2022-12-14T18:27:07.648Z,96992.69
2022-12-14T18:29:34.108Z,96993.28
2022-12-14T18:32:00.705Z,96989.84
2022-12-14T18:34:27.288Z,96994.69
2022-12-14T18:36:56.267Z,96993.59
2022-12-14T18:39:22.730Z,96994.16
2022-12-14T18:41:49.202Z,96994.47
2022-12-14T18:44:16.459Z,96995.56
2022-12-14T18:46:42.974Z,97003.25
2022-12-14T18:49:16.093Z,97003.72
2022-12-14T18:51:42.591Z,97007.22
2022-12-14T18:54:09.313Z,97011.44
2022-12-14T18:56:35.774Z,97009.06
2022-12-14T18:59:02.273Z,97005.91
2022-12-14T19:01:28.902Z,97010.75
2022-12-14T19:03:55.476Z,97004.63
2022-12-14T19:09:09.316Z,97004.72
2022-12-14T19:11:38.716Z,97005.31
2022-12-14T19:14:05.210Z,97015.66
2022-12-14T19:16:31.791Z,97001.88
2022-12-14T19:18:58.435Z,97007.78
2022-12-14T19:21:29.332Z,97006.84
2022-12-14T19:23:55.985Z,96997.53
2022-12-14T19:26:22.665Z,96998.34
2022-12-14T19:28:49.173Z,97013.63
2022-12-14T19:31:15.761Z,97006.22
2022-12-14T19:33:42.292Z,97002.38
2022-12-14T19:36:09.489Z,97008.00
2022-12-14T19:38:36.239Z,97008.59
2022-12-14T19:41:06.442Z,97017.06
2022-12-14T19:43:33.883Z,97021.59
2022-12-14T19:46:01.190Z,97013.91
2022-12-14T19:48:27.839Z,97016.09
2022-12-14T19:50:54.470Z,97022.47
2022-12-14T19:53:23.764Z,97014.50
2022-12-14T19:55:52.655Z,97010.25
2022-12-14T19:58:21.810Z,97020.13
2022-12-14T20:00:49.658Z,97018.84
2022-12-14T20:03:16.444Z,97022.78
2022-12-14T20:05:56.247Z,97022.00
2022-12-14T20:08:22.898Z,97017.25
2022-12-14T20:10:49.530Z,97014.19
2022-12-14T20:13:16.271Z,97019.50
2022-12-14T20:15:50.843Z,97035.38
2022-12-14T20:18:17.591Z,97030.06
2022-12-14T20:20:44.148Z,97027.69
2022-12-14T20:23:17.201Z,97033.84
2022-12-14T20:25:43.667Z,97029.50
2022-12-14T20:28:10.127Z,97031.94
2022-12-14T20:30:42.543Z,97038.44
2022-12-14T20:33:09.002Z,97036.69
2022-12-14T20:35:35.463Z,97031.56
2022-12-14T20:38:02.162Z,97033.94
2022-12-14T20:40:30.431Z,97042.44
2022-12-14T20:42:58.919Z,97041.81
2022-12-14T20:45:25.451Z,97038.88
2022-12-14T20:47:53.035Z,97048.75
2022-12-14T20:50:20.028Z,97051.91
2022-12-14T20:52:46.486Z,97057.75
2022-12-14T20:55:15.830Z,97065.94
2022-12-14T20:57:42.281Z,97075.13
2022-12-14T21:00:12.179Z,97080.94
2022-12-14T21:02:38.764Z,97089.72
2022-12-14T21:05:05.776Z,97087.78
2022-12-14T21:07:32.712Z,97095.16
2022-12-14T21:09:59.178Z,97095.16
2022-12-14T21:12:25.760Z,97082.63
2022-12-14T21:14:53.688Z,97082.34
2022-12-14T21:17:24.888Z,97083.34
2022-12-14T21:19:51.766Z,97092.59
2022-12-14T21:22:20.269Z,97092.22
2022-12-14T21:25:04.901Z,97099.25
2022-12-14T21:27:32.952Z,97103.59
2022-12-14T21:30:00.339Z,97109.41
2022-12-14T21:32:26.913Z,97115.94
2022-12-14T21:34:53.378Z,97108.03
2022-12-14T21:37:20.327Z,97115.41
2022-12-14T21:39:52.331Z,97108.41
2022-12-14T21:42:21.908Z,97103.09
2022-12-14T21:44:49.459Z,97099.53
2022-12-14T21:47:26.647Z,97118.41
2022-12-14T21:49:53.120Z,97113.38
2022-12-14T21:52:21.577Z,97109.72
2022-12-14T21:54:48.031Z,97109.94
2022-12-14T21:57:37.122Z,97111.72
2022-12-14T22:00:07.011Z,97110.22
2022-12-14T22:02:33.670Z,97107.16
2022-12-14T22:05:00.317Z,97103.88
2022-12-14T22:07:30.483Z,97112.19
2022-12-14T22:09:56.937Z,97116.72
2022-12-14T22:12:23.390Z,97124.09
2022-12-14T22:14:49.962Z,97121.63
2022-12-14T22:17:16.414Z,97127.59
2022-12-14T22:19:42.884Z,97122.63
2022-12-14T22:24:41.977Z,97121.25
2022-12-14T22:27:10.155Z,97125.81
2022-12-14T22:29:36.606Z,97128.19
2022-12-14T22:32:03.101Z,97128.47
2022-12-14T22:34:29.577Z,97120.75
2022-12-14T22:39:22.292Z,97129.84
2022-12-14T22:41:48.875Z,97132.03
2022-12-14T22:44:15.560Z,97134.50
2022-12-14T22:46:42.311Z,97128.38
2022-12-14T22:49:08.891Z,97134.19
2022-12-14T22:51:35.498Z,97135.88
2022-12-14T22:54:02.432Z,97133.53
2022-12-14T22:56:38.830Z,97139.34
2022-12-14T22:59:11.584Z,97130.06
2022-12-14T23:01:38.208Z,97131.63
2022-12-14T23:04:05.656Z,97131.75
2022-12-14T23:06:32.383Z,97127.97
2022-12-14T23:09:17.344Z,97132.84
2022-12-14T23:12:02.074Z,97121.38
2022-12-14T23:14:46.863Z,97131.25
2022-12-14T23:17:31.810Z,97125.22
2022-12-14T23:20:16.926Z,97121.88
2022-12-14T23:23:01.651Z,97123.44
2022-12-14T23:25:46.506Z,97128.59
2022-12-14T23:28:31.750Z,97132.31
2022-12-14T23:31:17.674Z,97138.84
2022-12-14T23:34:02.712Z,97142.03
2022-12-14T23:36:47.516Z,97145.63
2022-12-14T23:39:33.054Z,97154.09
2022-12-14T23:42:17.765Z,97155.00
2022-12-14T23:45:02.829Z,97160.41
2022-12-14T23:47:49.354Z,97155.16
2022-12-14T23:50:35.023Z,97165.31
2022-12-14T23:53:24.565Z,97160.59
2022-12-14T23:56:09.163Z,97171.53
2022-12-14T23:58:53.920Z,97167.88
